• Join FlightAware (Why Join?)
  • Login
  • US Flag 
04:23AM EDT


 

Airport Tracker/Info


-or-


 

Live Flight TrackerFlight Track Log ✈ N555CP ✈ 27-May-2013 ✈ KRTS - KUAO

Flight Track Log - Related Links

Times and Time Zones

All times are in EDT time to prevent confusion due to time zone crossing. See the N555CP flight status page for this flight to view local times or setup timezone preferences in your user account.

Time Position Orientation Groundspeed Altitude Reporting Facility
EDT Latitude Longitude Course Direction KTS MPH feet Rate Location/Type
05:04PM 39.8000 -119.9167 360° North 148 170 9,100  Level Northern Cal TRACON
05:04PM 39.8072 -119.9247 319° Northwest 145 167 20,000 1,680 Climbing Oakland Center
05:05PM 39.8361 -119.9469 329° Northwest 109 125 11,500 -3,720 Descending Oakland Center
05:06PM 39.8703 -119.9708 332° Northwest 136 157 12,400 720 Climbing Oakland Center
05:07PM 39.9053 -119.9972 330° Northwest 139 160 13,000 660 Climbing Oakland Center
05:08PM 39.9350 -120.0194 330° Northwest 133 153 13,800 780 Climbing Oakland Center
05:09PM 39.9775 -120.0403 339° North 132 152 14,700 780 Climbing Oakland Center
05:10PM 40.0172 -120.0556 344° North 138 159 15,500 840 Climbing Oakland Center
05:11PM 40.0547 -120.0744 339° North 144 166 16,500 900 Climbing Oakland Center
05:12PM 40.0919 -120.0919 340° North 143 165 17,400 780 Climbing Oakland Center
05:13PM 40.1286 -120.1094 340° North 141 162 18,100 480 Climbing Oakland Center
05:14PM 40.1678 -120.1278 340° North 146 168 18,500 480 Climbing Oakland Center
05:15PM 40.2075 -120.1458 341° North 148 170 19,100 480 Climbing Oakland Center
05:16PM 40.2458 -120.1650 339° North 149 171 19,500 240 Climbing Oakland Center
05:17PM 40.2922 -120.1878 339° North 148 170 19,700 240 Climbing Oakland Center
05:18PM 40.3342 -120.2061 342° North 154 177 20,000 120 Climbing Oakland Center
05:19PM 40.3783 -120.2286 339° North 166 191 20,000  Level Oakland Center
05:20PM 40.4264 -120.2500 341° North 177 204 20,000  Level Oakland Center
05:21PM 40.4742 -120.2731 340° North 181 208 20,000  Level Oakland Center
05:22PM 40.5203 -120.2961 339° North 179 206 20,000  Level Oakland Center
05:24PM 40.5792 -120.3250 340° North 183 211 20,000  Level Seattle Center
05:25PM 40.6289 -120.3481 341° North 187 215 20,000  Level Seattle Center
05:26PM 40.6786 -120.3711 341° North 187 215 20,000  Level Seattle Center
05:27PM 40.7175 -120.3906 339° North 190 219 20,000  Level Oakland Center
05:28PM 40.7781 -120.4186 341° North 194 223 20,000  Level Oakland Center
05:29PM 40.8244 -120.4431 338° Northwest 185 213 20,000  Level Oakland Center
05:30PM 40.8706 -120.4656 340° North 180 207 20,000  Level Oakland Center
05:31PM 40.9275 -120.4939 339° North 179 206 20,000  Level Seattle Center
05:32PM 40.9725 -120.5156 340° North 175 201 20,000  Level Seattle Center
05:33PM 41.0181 -120.5369 340° North 173 199 20,000  Level Seattle Center
05:34PM 41.0628 -120.5597 339° North 174 200 20,000  Level Seattle Center
05:35PM 41.1075 -120.5828 339° North 172 198 20,000  Level Seattle Center
05:36PM 41.1539 -120.6047 340° North 176 203 20,000  Level Seattle Center
05:37PM 41.2000 -120.6283 339° North 178 205 20,000  Level Seattle Center
05:38PM 41.2475 -120.6514 340° North 182 209 20,000  Level Seattle Center
05:39PM 41.2969 -120.6764 339° North 182 209 20,000  Level Seattle Center
05:40PM 41.3428 -120.6989 340° North 184 212 20,000  Level Seattle Center
05:41PM 41.3906 -120.7239 339° North 184 212 20,000  Level Seattle Center
05:42PM 41.4378 -120.7467 340° North 183 211 20,000  Level Seattle Center
05:43PM 41.4819 -120.7681 340° North 176 203 20,000  Level Seattle Center
05:44PM 41.5319 -120.7939 339° North 166 191 20,000  Level Seattle Center
05:45PM 41.5753 -120.8164 339° North 165 190 20,000  Level Seattle Center
05:46PM 41.6200 -120.8383 340° North 167 192 20,000  Level Seattle Center
05:47PM 41.6653 -120.8611 339° North 170 196 20,000  Level Seattle Center
05:48PM 41.7111 -120.8842 339° North 173 199 20,000  Level Seattle Center
05:49PM 41.7586 -120.9078 340° North 177 204 20,000  Level Seattle Center
05:50PM 41.8067 -120.9319 339° North 180 207 20,000  Level Seattle Center
05:51PM 41.8542 -120.9553 340° North 182 209 20,000  Level Seattle Center
05:52PM 41.9017 -120.9806 338° Northwest 183 211 20,000  Level Seattle Center
05:53PM 41.9492 -121.0044 339° North 183 211 20,000  Level Seattle Center
05:54PM 41.9975 -121.0289 339° North 184 212 20,000  Level Seattle Center
05:55PM 42.0469 -121.0547 339° North 187 215 20,000  Level Seattle Center
05:56PM 42.1050 -121.0836 340° North 187 215 20,000  Level Seattle Center
05:57PM 42.1528 -121.1081 339° North 186 214 20,000  Level Seattle Center
05:58PM 42.2019 -121.1331 339° North 186 214 20,000  Level Seattle Center
05:59PM 42.2522 -121.1586 339° North 190 219 20,000  Level Seattle Center
06:00PM 42.3014 -121.1844 339° North 190 219 20,000  Level Seattle Center
06:01PM 42.3525 -121.2092 340° North 193 222 20,000  Level Seattle Center
06:02PM 42.4017 -121.2358 338° Northwest 193 222 20,000  Level Seattle Center
06:03PM 42.4517 -121.2606 340° North 192 221 20,000  Level Seattle Center
06:04PM 42.5017 -121.2867 339° North 192 221 20,000  Level Seattle Center
06:05PM 42.5531 -121.3131 339° North 196 226 20,000  Level Seattle Center
06:06PM 42.6050 -121.3386 340° North 198 228 20,000  Level Seattle Center
06:07PM 42.6642 -121.3694 339° North 193 222 20,000  Level Seattle Center
06:08PM 42.7167 -121.3961 340° North 199 229 20,000  Level Seattle Center
06:09PM 42.7686 -121.4231 339° North 200 230 20,000  Level Seattle Center
06:10PM 42.8197 -121.4508 338° Northwest 199 229 20,000  Level Seattle Center
06:11PM 42.8714 -121.4772 339° North 198 228 20,000  Level Seattle Center
06:12PM 42.9225 -121.5039 339° North 198 228 20,000  Level Seattle Center
06:13PM 42.9731 -121.5308 339° North 196 226 20,000  Level Seattle Center
06:15PM 43.0239 -121.5575 339° North 196 226 20,000  Level Seattle Center
06:16PM 43.0736 -121.5831 339° North 193 222 20,000  Level Seattle Center
06:17PM 43.1244 -121.6103 339° North 194 223 20,000  Level Seattle Center
06:18PM 43.1742 -121.6369 339° North 192 221 20,000  Level Seattle Center
06:19PM 43.2250 -121.6639 339° North 196 226 20,000  Level Seattle Center
06:20PM 43.2769 -121.6900 340° North 198 228 20,000  Level Seattle Center
06:21PM 43.3289 -121.7197 337° Northwest 203 234 20,000  Level Seattle Center
06:22PM 43.3894 -121.7492 341° North 193 222 20,000  Level Seattle Center
06:23PM 43.4411 -121.7767 339° North 198 228 20,000  Level Seattle Center
06:24PM 43.4922 -121.8053 338° Northwest 199 229 20,000  Level Seattle Center
06:25PM 43.5439 -121.8319 339° North 199 229 20,000  Level Seattle Center
06:26PM 43.5978 -121.8614 338° Northwest 206 237 20,000  Level Seattle Center
06:27PM 43.6494 -121.8869 340° North 201 231 20,000  Level Seattle Center
06:28PM 43.7025 -121.9167 338° Northwest 204 235 20,000  Level Seattle Center
06:29PM 43.7567 -121.9444 340° North 206 237 20,000  Level Seattle Center
06:30PM 43.8100 -121.9747 338° Northwest 208 239 20,000  Level Seattle Center
06:31PM 43.8644 -122.0022 340° North 209 241 20,000  Level Seattle Center
06:32PM 43.9169 -122.0306 339° North 205 236 20,000  Level Seattle Center
06:33PM 43.9808 -122.0656 338° Northwest 205 236 20,000  Level Seattle Center
06:34PM 44.0344 -122.0950 338° Northwest 207 238 20,000  Level Seattle Center
06:35PM 44.0875 -122.1181 343° North 203 234 20,000  Level Seattle Center
06:36PM 44.1433 -122.1425 343° North 208 239 20,000 -180 Level Seattle Center
06:37PM 44.1986 -122.1664 343° North 208 239 19,700 -420 Descending Seattle Center
06:38PM 44.2583 -122.1928 342° North 221 254 19,200 -600 Descending Seattle Center
06:39PM 44.3203 -122.2189 343° North 228 262 18,500 -660 Descending Seattle Center
06:40PM 44.3819 -122.2461 342° North 233 268 17,900 -600 Descending Seattle Center
06:41PM 44.4417 -122.2722 343° North 227 261 17,400 -720 Descending Seattle Center
06:42PM 44.5022 -122.2914 347° North 242 278 16,500 -780 Descending Seattle Center
06:43PM 44.5678 -122.2667 15° North 245 282 15,900 -780 Descending Seattle Center
06:44PM 44.6325 -122.2406 16° North 244 281 15,000 -840 Descending Seattle Center
06:45PM 44.6972 -122.2211 12° North 240 276 14,200 -1,020 Descending Seattle Center
06:45PM 44.7322 -122.2544 326° Northwest 215 247 13,500 -900 Descending Seattle Center
06:46PM 44.7492 -122.2642 338° Northwest 220 253 13,300 -1,020 Descending Seattle Center
06:47PM 44.8069 -122.3003 336° Northwest 235 270 12,200 -720 Descending Seattle Center
06:48PM 44.8739 -122.3419 336° Northwest 222 255 11,900 -600 Descending Seattle Center
06:49PM 44.9144 -122.3692 335° Northwest 217 250 11,100 -1,020 Descending Seattle Center
06:49PM 44.9294 -122.3778 338° Northwest 223 257 10,900 -1,020 Descending Seattle Center
06:50PM 44.9694 -122.4047 335° Northwest 223 257 10,100 -1,020 Descending Seattle Center
06:50PM 44.9853 -122.4133 339° North 223 257 9,900 -720 Descending Seattle Center
06:51PM 45.0250 -122.4431 332° Northwest 217 250 9,400 -600 Descending Seattle Center
06:51PM 45.0389 -122.4497 341° North 218 251 9,300 -1,140 Descending Seattle Center
06:52PM 45.0794 -122.4761 335° Northwest 213 245 8,300 -1,320 Descending Seattle Center
06:52PM 45.0933 -122.4847 336° Northwest 216 249 8,000 -1,200 Descending Seattle Center
06:53PM 45.1369 -122.5139 335° Northwest 225 259 7,100 -1,140 Descending Seattle Center
06:53PM 45.1486 -122.5222 333° Northwest 219 252 6,900 -1,200 Descending Seattle Center
06:54PM 45.1947 -122.5517 336° Northwest 224 258 5,900 -1,020 Descending Seattle Center
06:54PM 45.2056 -122.5586 336° Northwest 224 258 5,900 -1,200 Level Seattle Center
06:55PM 45.2547 -122.5917 335° Northwest 215 247 4,600 -1,320 Descending Seattle Center
06:56PM 45.3097 -122.6275 335° Northwest 220 253 3,600 -720 Descending Seattle Center
06:57PM 45.3675 -122.6347 355° North 211 243 3,200 -300 Descending Seattle Center
06:58PM 45.4217 -122.6344 360° North 197 227 3,000 -120 Descending Seattle Center
06:59PM 45.4578 -122.6842 316° Northwest 162 186 3,000  Level Seattle Center
07:00PM 45.4614 -122.7350 276° West 148 170 3,000 -300 Level Seattle Center
07:01PM 45.4175 -122.7436 188° South 165 190 2,400 -660 Descending Seattle Center
07:01PM 45.4108 -122.7447 187° South 163 188 2,200 -840 Descending Seattle Center